createdAt,value
2023-12-08T00:00:09.002Z,98662.98
2023-12-08T00:02:36.194Z,98656.39
2023-12-08T00:05:04.645Z,98651.06
2023-12-08T00:07:31.476Z,98653.95
2023-12-08T00:09:59.154Z,98657.21
2023-12-08T00:12:25.938Z,98656.85
2023-12-08T00:14:52.938Z,98656.77
2023-12-08T00:17:21.325Z,98655.98
2023-12-08T00:19:48.090Z,98645.59
2023-12-08T00:22:14.866Z,98642.98
2023-12-08T00:24:41.753Z,98634.80
2023-12-08T00:27:08.829Z,98631.21
2023-12-08T00:29:35.988Z,98627.13
2023-12-08T00:32:03.009Z,98629.84
2023-12-08T00:34:29.794Z,98630.61
2023-12-08T00:36:57.019Z,98625.83
2023-12-08T00:39:23.910Z,98622.33
2023-12-08T00:41:50.800Z,98621.27
2023-12-08T00:44:17.869Z,98626.97
2023-12-08T00:46:44.773Z,98629.66
2023-12-08T00:49:11.898Z,98627.55
2023-12-08T00:51:39.497Z,98632.04
2023-12-08T00:54:06.272Z,98631.60
2023-12-08T00:56:33.433Z,98640.20
2023-12-08T00:59:00.528Z,98641.23
2023-12-08T01:01:27.521Z,98649.90
2023-12-08T01:03:54.570Z,98653.22
2023-12-08T01:06:21.717Z,98655.02
2023-12-08T01:08:48.623Z,98654.81
2023-12-08T01:11:15.751Z,98654.08
2023-12-08T01:13:42.492Z,98651.75
2023-12-08T01:16:09.511Z,98654.02
2023-12-08T01:18:36.556Z,98657.52
2023-12-08T01:21:04.486Z,98654.35
2023-12-08T01:23:31.466Z,98647.85
2023-12-08T01:25:58.803Z,98647.92
2023-12-08T01:28:25.753Z,98646.30
2023-12-08T01:30:52.655Z,98643.39
2023-12-08T01:33:28.816Z,98635.52
2023-12-08T01:36:37.442Z,98634.59
2023-12-08T01:38:47.417Z,98631.95
2023-12-08T01:41:17.887Z,98630.45
2023-12-08T01:43:45.460Z,98624.89
2023-12-08T01:46:20.710Z,98623.77
2023-12-08T01:48:48.775Z,98621.66
2023-12-08T01:51:17.748Z,98623.02
2023-12-08T01:53:46.976Z,98618.16
2023-12-08T01:56:15.344Z,98622.82
2023-12-08T01:58:42.502Z,98622.39
2023-12-08T02:01:11.647Z,98628.65
2023-12-08T02:03:41.545Z,98625.14
2023-12-08T02:06:11.010Z,98628.21
2023-12-08T02:08:38.547Z,98629.11
2023-12-08T02:11:05.790Z,98632.69
2023-12-08T02:13:33.497Z,98628.58
2023-12-08T02:16:33.128Z,98629.33
2023-12-08T02:19:00.929Z,98636.91
2023-12-08T02:21:28.991Z,98635.59
2023-12-08T02:23:56.172Z,98630.58
2023-12-08T02:26:22.892Z,98630.26
2023-12-08T02:28:49.980Z,98620.48
2023-12-08T02:31:20.937Z,98620.58
2023-12-08T02:33:52.977Z,98619.56
2023-12-08T02:36:21.129Z,98621.88
2023-12-08T02:38:49.355Z,98622.30
2023-12-08T02:41:16.412Z,98622.41
2023-12-08T02:43:43.561Z,98620.02
2023-12-08T02:46:10.506Z,98617.91
2023-12-08T02:48:37.492Z,98623.65
2023-12-08T02:51:05.188Z,98627.92
2023-12-08T02:53:32.280Z,98626.34
2023-12-08T02:55:59.268Z,98622.59
2023-12-08T02:58:26.796Z,98626.47
2023-12-08T03:00:53.730Z,98626.04
2023-12-08T03:03:20.613Z,98622.81
2023-12-08T03:05:47.698Z,98621.89
2023-12-08T03:08:14.602Z,98621.98
2023-12-08T03:10:41.501Z,98627.14
2023-12-08T03:13:08.552Z,98631.61
2023-12-08T03:15:35.448Z,98636.86
2023-12-08T03:18:02.410Z,98641.50
2023-12-08T03:20:29.318Z,98642.75
2023-12-08T03:22:56.980Z,98648.80
2023-12-08T03:25:23.890Z,98643.84
2023-12-08T03:27:51.075Z,98641.13
2023-12-08T03:30:18.155Z,98645.08
2023-12-08T03:32:45.035Z,98644.77
2023-12-08T03:35:12.611Z,98648.11
2023-12-08T03:37:39.563Z,98650.08
2023-12-08T03:40:07.223Z,98647.85
2023-12-08T03:42:38.032Z,98641.96
2023-12-08T03:45:06.301Z,98637.23
2023-12-08T03:47:33.523Z,98641.93
2023-12-08T03:50:00.691Z,98644.57
2023-12-08T03:52:28.095Z,98644.14
2023-12-08T03:54:55.014Z,98641.73
2023-12-08T03:57:22.644Z,98644.60
2023-12-08T03:59:49.652Z,98645.53
2023-12-08T04:02:16.689Z,98650.52
2023-12-08T04:04:43.864Z,98642.09
2023-12-08T04:07:10.803Z,98638.44
2023-12-08T04:09:37.692Z,98637.45
2023-12-08T04:12:05.044Z,98637.06
2023-12-08T04:14:32.006Z,98632.06
2023-12-08T04:16:59.035Z,98632.51
2023-12-08T04:19:26.634Z,98633.31
2023-12-08T04:21:53.712Z,98627.73
2023-12-08T04:24:20.664Z,98627.48
2023-12-08T04:26:48.122Z,98624.33
2023-12-08T04:29:15.198Z,98620.61
2023-12-08T04:31:42.149Z,98616.54
2023-12-08T04:34:09.514Z,98616.27
2023-12-08T04:36:36.554Z,98618.14
2023-12-08T04:39:03.986Z,98617.48
2023-12-08T04:41:31.435Z,98622.01
2023-12-08T04:43:58.394Z,98614.65
2023-12-08T04:46:26.141Z,98613.42
2023-12-08T04:48:53.250Z,98613.85
2023-12-08T04:51:20.959Z,98614.12
2023-12-08T04:53:47.905Z,98618.92
2023-12-08T04:56:14.905Z,98618.89
2023-12-08T04:58:41.664Z,98616.88
2023-12-08T05:01:13.764Z,98620.63
2023-12-08T05:03:41.623Z,98622.09
2023-12-08T05:06:09.788Z,98621.45
2023-12-08T05:08:37.402Z,98617.02
2023-12-08T05:11:04.517Z,98614.56
2023-12-08T05:13:31.479Z,98612.14
2023-12-08T05:15:58.369Z,98611.20
2023-12-08T05:18:25.595Z,98607.81
2023-12-08T05:20:53.076Z,98604.55
2023-12-08T05:23:19.960Z,98606.14
2023-12-08T05:25:47.195Z,98605.70
2023-12-08T05:28:13.892Z,98607.13
2023-12-08T05:30:40.793Z,98609.77
2023-12-08T05:33:08.092Z,98606.89
2023-12-08T05:35:35.117Z,98602.71
2023-12-08T05:38:02.064Z,98604.55
2023-12-08T05:40:29.508Z,98606.75
2023-12-08T05:42:56.449Z,98601.77
2023-12-08T05:45:23.389Z,98592.67
2023-12-08T05:47:50.604Z,98588.36
2023-12-08T05:50:18.492Z,98580.34
2023-12-08T05:52:45.395Z,98574.55
2023-12-08T05:55:12.324Z,98579.34
2023-12-08T05:57:39.408Z,98589.41
2023-12-08T06:00:08.063Z,98595.58
2023-12-08T06:02:35.044Z,98602.82
2023-12-08T06:05:01.951Z,98603.05
2023-12-08T06:07:29.250Z,98599.73
2023-12-08T06:09:56.998Z,98601.36
2023-12-08T06:12:26.322Z,98605.60
2023-12-08T06:14:53.384Z,98606.77
2023-12-08T06:17:20.528Z,98608.10
2023-12-08T06:19:47.539Z,98601.67
2023-12-08T06:22:14.724Z,98603.72
2023-12-08T06:24:41.974Z,98603.89
2023-12-08T06:27:08.887Z,98608.00
2023-12-08T06:29:35.687Z,98610.39
2023-12-08T06:32:02.899Z,98608.04
2023-12-08T06:34:30.419Z,98607.64
2023-12-08T06:36:57.472Z,98599.05
2023-12-08T06:39:24.649Z,98593.23
2023-12-08T06:41:51.629Z,98592.06
2023-12-08T06:44:18.706Z,98599.04
2023-12-08T06:46:46.008Z,98600.53
2023-12-08T06:49:14.622Z,98598.48
2023-12-08T06:51:41.627Z,98596.15
2023-12-08T06:54:08.798Z,98595.96
2023-12-08T06:56:35.985Z,98596.70
2023-12-08T06:59:03.289Z,98594.24
2023-12-08T07:01:30.401Z,98588.98
2023-12-08T07:03:57.365Z,98592.63
2023-12-08T07:06:24.381Z,98591.72
2023-12-08T07:08:52.010Z,98598.29
2023-12-08T07:11:19.035Z,98597.89
2023-12-08T07:13:45.985Z,98600.53
2023-12-08T07:16:12.819Z,98597.63
2023-12-08T07:18:39.919Z,98595.02
2023-12-08T07:21:07.242Z,98596.36
2023-12-08T07:23:35.320Z,98597.27
2023-12-08T07:26:03.745Z,98599.95
2023-12-08T07:28:30.699Z,98602.70
2023-12-08T07:30:58.163Z,98598.20
2023-12-08T07:33:25.424Z,98597.31
2023-12-08T07:35:55.109Z,98601.55
2023-12-08T07:38:22.130Z,98599.52
2023-12-08T07:40:49.145Z,98601.88
2023-12-08T07:43:16.116Z,98601.29
2023-12-08T07:45:43.264Z,98602.13
2023-12-08T07:48:10.583Z,98598.91
2023-12-08T07:50:37.717Z,98600.55
2023-12-08T07:53:04.948Z,98604.81
2023-12-08T07:55:31.884Z,98616.08
2023-12-08T07:57:58.803Z,98615.42
2023-12-08T08:00:26.585Z,98613.94
2023-12-08T08:02:53.468Z,98611.81
2023-12-08T08:05:20.601Z,98615.28
2023-12-08T08:07:48.365Z,98616.19
2023-12-08T08:10:15.052Z,98612.98
2023-12-08T08:12:41.746Z,98611.66
2023-12-08T08:15:09.266Z,98612.88
2023-12-08T08:17:36.254Z,98616.52
2023-12-08T08:20:03.390Z,98620.05
2023-12-08T08:22:32.996Z,98626.30
2023-12-08T08:25:01.518Z,98623.68
2023-12-08T08:27:29.414Z,98620.33
2023-12-08T08:29:56.727Z,98616.36
2023-12-08T08:32:23.739Z,98617.27
2023-12-08T08:34:55.253Z,98607.36
2023-12-08T08:37:25.084Z,98603.38
2023-12-08T08:39:52.261Z,98602.27
2023-12-08T08:42:19.226Z,98601.58
2023-12-08T08:44:46.363Z,98601.92
2023-12-08T08:47:13.656Z,98597.36
2023-12-08T08:49:40.919Z,98594.81
2023-12-08T08:52:08.431Z,98588.05
2023-12-08T08:54:35.397Z,98587.31
2023-12-08T08:57:02.527Z,98586.59
2023-12-08T08:59:29.596Z,98585.26
2023-12-08T09:01:56.545Z,98590.52
2023-12-08T09:04:23.793Z,98584.66
2023-12-08T09:06:51.650Z,98584.16
2023-12-08T09:09:18.900Z,98578.21
2023-12-08T09:11:46.015Z,98585.43
2023-12-08T09:14:13.252Z,98585.56
2023-12-08T09:16:40.738Z,98583.76
2023-12-08T09:19:08.460Z,98590.80
2023-12-08T09:21:42.548Z,98588.52
2023-12-08T09:24:16.341Z,98588.23
2023-12-08T09:26:43.515Z,98589.77
2023-12-08T09:29:11.018Z,98587.55
2023-12-08T09:31:38.116Z,98581.96
2023-12-08T09:34:05.678Z,98580.98
2023-12-08T09:36:32.864Z,98576.19
2023-12-08T09:38:59.820Z,98573.45
2023-12-08T09:41:28.884Z,98563.58
2023-12-08T09:44:08.152Z,98558.58
2023-12-08T09:46:36.436Z,98555.21
2023-12-08T09:49:05.328Z,98552.30
2023-12-08T09:51:32.373Z,98552.54
2023-12-08T09:54:00.466Z,98544.31
2023-12-08T09:56:29.780Z,98543.32
2023-12-08T09:58:56.805Z,98532.36
2023-12-08T10:01:24.000Z,98522.01
2023-12-08T10:03:51.501Z,98516.70
2023-12-08T10:06:20.601Z,98517.98
2023-12-08T10:08:47.615Z,98519.39
2023-12-08T10:11:16.273Z,98512.49
2023-12-08T10:13:44.240Z,98506.11
2023-12-08T10:16:11.934Z,98500.21
2023-12-08T10:18:38.879Z,98489.73
2023-12-08T10:21:18.188Z,98488.77
2023-12-08T10:23:46.328Z,98491.23
2023-12-08T10:26:17.629Z,98492.05
2023-12-08T10:28:44.530Z,98494.02
2023-12-08T10:31:14.228Z,98494.67
2023-12-08T10:33:43.154Z,98496.50
2023-12-08T10:36:10.622Z,98495.11
2023-12-08T10:38:38.038Z,98488.09
2023-12-08T10:41:06.945Z,98487.52
2023-12-08T10:43:33.894Z,98488.48
2023-12-08T10:46:01.941Z,98490.87
2023-12-08T10:48:28.960Z,98493.02
2023-12-08T10:50:57.044Z,98494.98
2023-12-08T10:53:23.850Z,98496.48
2023-12-08T10:56:07.828Z,98502.95
2023-12-08T10:58:37.464Z,98496.73
2023-12-08T11:01:08.746Z,98499.36
2023-12-08T11:03:36.852Z,98505.31
2023-12-08T11:06:16.614Z,98506.45
2023-12-08T11:08:47.278Z,98501.51
2023-12-08T11:11:15.344Z,98497.08
2023-12-08T11:13:47.170Z,98500.27
2023-12-08T11:16:56.721Z,98497.19
2023-12-08T11:19:25.015Z,98497.84
2023-12-08T11:21:54.079Z,98496.11
2023-12-08T11:24:23.084Z,98503.06
2023-12-08T11:27:08.592Z,98494.27
2023-12-08T11:29:49.249Z,98499.66
2023-12-08T11:32:40.414Z,98498.60
2023-12-08T11:35:13.707Z,98501.44
2023-12-08T11:37:44.807Z,98500.79
2023-12-08T11:40:13.595Z,98501.44
2023-12-08T11:42:43.466Z,98505.27
2023-12-08T11:45:12.226Z,98503.84
2023-12-08T11:47:39.449Z,98502.55
2023-12-08T11:50:08.597Z,98500.86
2023-12-08T11:52:40.085Z,98498.33
2023-12-08T11:55:15.146Z,98493.63
2023-12-08T11:57:55.850Z,98486.40
2023-12-08T12:00:24.527Z,98487.91
2023-12-08T12:02:52.527Z,98484.31
2023-12-08T12:05:20.355Z,98485.86
2023-12-08T12:07:51.267Z,98479.58
2023-12-08T12:10:22.955Z,98479.11
2023-12-08T12:12:54.862Z,98476.84
2023-12-08T12:15:24.909Z,98473.41
2023-12-08T12:17:55.577Z,98467.64
2023-12-08T12:20:22.554Z,98465.77
2023-12-08T12:22:49.734Z,98465.83
2023-12-08T12:25:16.749Z,98461.73
2023-12-08T12:27:47.532Z,98459.39
2023-12-08T12:30:15.932Z,98461.97
2023-12-08T12:32:42.998Z,98466.61
2023-12-08T12:35:10.183Z,98462.64
2023-12-08T12:37:37.120Z,98458.96
2023-12-08T12:40:09.039Z,98459.59
2023-12-08T12:42:47.372Z,98458.20
2023-12-08T12:45:29.860Z,98458.60
2023-12-08T12:48:10.907Z,98464.83
2023-12-08T12:50:56.147Z,98463.07
2023-12-08T12:53:24.198Z,98455.75
2023-12-08T12:55:51.303Z,98462.91
2023-12-08T12:58:22.745Z,98463.09
2023-12-08T13:00:50.792Z,98454.98
2023-12-08T13:03:20.005Z,98448.14
2023-12-08T13:05:56.352Z,98445.02
2023-12-08T13:08:24.470Z,98443.33
2023-12-08T13:10:53.049Z,98439.88
2023-12-08T13:13:20.531Z,98435.04
2023-12-08T13:15:47.721Z,98441.45
2023-12-08T13:18:15.100Z,98436.09
2023-12-08T13:20:42.980Z,98437.94
2023-12-08T13:23:09.868Z,98440.86
2023-12-08T13:25:37.617Z,98441.30
2023-12-08T13:28:06.752Z,98448.82
2023-12-08T13:30:33.987Z,98444.09
2023-12-08T13:33:04.612Z,98439.56
2023-12-08T13:35:34.297Z,98445.94
2023-12-08T13:38:01.429Z,98446.84
2023-12-08T13:40:29.967Z,98449.56
2023-12-08T13:42:57.088Z,98454.60
2023-12-08T13:45:24.029Z,98459.84
2023-12-08T13:47:51.282Z,98457.23
2023-12-08T13:50:18.654Z,98458.54
2023-12-08T13:52:45.647Z,98460.27
2023-12-08T13:55:12.584Z,98461.80
2023-12-08T13:57:41.722Z,98464.61
2023-12-08T14:00:09.651Z,98464.04
2023-12-08T14:02:37.774Z,98463.43
2023-12-08T14:05:05.302Z,98459.44
2023-12-08T14:07:32.593Z,98458.48
2023-12-08T14:09:59.708Z,98457.46
2023-12-08T14:12:27.399Z,98454.07
2023-12-08T14:14:54.466Z,98454.63
2023-12-08T14:17:21.893Z,98454.23
2023-12-08T14:19:48.887Z,98454.50
2023-12-08T14:22:15.814Z,98459.34
2023-12-08T14:24:42.666Z,98457.94
2023-12-08T14:27:09.799Z,98459.80
2023-12-08T14:29:36.710Z,98456.55
2023-12-08T14:32:03.745Z,98452.11
2023-12-08T14:34:30.753Z,98451.98
2023-12-08T14:36:58.123Z,98455.40
2023-12-08T14:39:25.225Z,98458.04
2023-12-08T14:41:52.308Z,98456.49
2023-12-08T14:44:19.346Z,98458.83
2023-12-08T14:46:50.459Z,98461.81
2023-12-08T14:49:22.225Z,98465.86
2023-12-08T14:51:49.199Z,98466.01
2023-12-08T14:54:22.585Z,98463.50
2023-12-08T14:56:53.627Z,98466.84
2023-12-08T14:59:20.702Z,98460.88
2023-12-08T15:01:47.740Z,98459.33
2023-12-08T15:04:15.548Z,98463.31
2023-12-08T15:06:42.793Z,98461.75
2023-12-08T15:09:10.378Z,98455.84
2023-12-08T15:11:37.721Z,98461.02
2023-12-08T15:14:04.534Z,98458.10
2023-12-08T15:16:31.242Z,98459.36
2023-12-08T15:18:58.529Z,98456.77
2023-12-08T15:21:28.014Z,98456.13
2023-12-08T15:23:58.294Z,98458.72
2023-12-08T15:26:26.250Z,98454.14
2023-12-08T15:28:53.052Z,98454.29
2023-12-08T15:31:20.146Z,98458.48
2023-12-08T15:33:47.948Z,98463.00
2023-12-08T15:36:15.347Z,98461.55
2023-12-08T15:38:45.384Z,98456.27
2023-12-08T15:41:12.594Z,98457.63
2023-12-08T15:43:40.241Z,98455.34
2023-12-08T15:46:08.408Z,98455.00
2023-12-08T15:48:36.186Z,98456.74
2023-12-08T15:51:09.723Z,98458.95
2023-12-08T15:53:37.022Z,98461.56
2023-12-08T15:56:04.028Z,98465.20
2023-12-08T15:58:31.028Z,98465.11
2023-12-08T16:00:58.015Z,98468.41
2023-12-08T16:03:25.083Z,98471.06
2023-12-08T16:05:52.264Z,98475.27
2023-12-08T16:08:19.478Z,98480.90
2023-12-08T16:10:46.408Z,98472.30
2023-12-08T16:13:13.163Z,98471.06
2023-12-08T16:15:40.552Z,98474.16
2023-12-08T16:18:07.415Z,98474.60
2023-12-08T16:20:35.287Z,98477.55
2023-12-08T16:23:02.364Z,98479.70
2023-12-08T16:25:29.082Z,98475.78
2023-12-08T16:27:56.607Z,98471.19
2023-12-08T16:30:24.009Z,98468.75
2023-12-08T16:32:51.056Z,98470.74
2023-12-08T16:35:17.829Z,98472.09
2023-12-08T16:37:46.536Z,98469.06
2023-12-08T16:40:13.750Z,98466.36
2023-12-08T16:42:40.844Z,98464.66
2023-12-08T16:45:08.243Z,98459.36
2023-12-08T16:47:35.511Z,98462.10
2023-12-08T16:50:02.563Z,98461.45
2023-12-08T16:52:30.326Z,98459.23
2023-12-08T16:54:57.589Z,98454.79
2023-12-08T16:57:24.621Z,98450.98
2023-12-08T16:59:52.949Z,98449.05
2023-12-08T17:02:19.946Z,98446.17
2023-12-08T17:04:47.334Z,98441.02
2023-12-08T17:07:14.482Z,98437.15
2023-12-08T17:09:42.017Z,98433.41
2023-12-08T17:12:09.093Z,98434.63
2023-12-08T17:14:36.087Z,98432.23
2023-12-08T17:17:04.182Z,98435.80
2023-12-08T17:19:31.029Z,98441.27
2023-12-08T17:21:58.707Z,98443.49
2023-12-08T17:24:26.021Z,98442.42
2023-12-08T17:26:55.634Z,98443.48
2023-12-08T17:29:23.668Z,98440.58
2023-12-08T17:31:50.752Z,98438.19
2023-12-08T17:34:22.485Z,98436.75
2023-12-08T17:36:51.932Z,98443.45
2023-12-08T17:39:19.192Z,98445.65
2023-12-08T17:41:47.341Z,98442.98
2023-12-08T17:44:14.886Z,98435.43
2023-12-08T17:46:42.342Z,98439.40
2023-12-08T17:49:16.801Z,98440.77
2023-12-08T17:51:43.837Z,98438.73
2023-12-08T17:54:10.770Z,98437.69
2023-12-08T17:56:37.715Z,98436.48
2023-12-08T17:59:04.555Z,98438.25
2023-12-08T18:01:31.649Z,98442.73
2023-12-08T18:03:58.665Z,98443.52
2023-12-08T18:06:27.232Z,98443.60
2023-12-08T18:08:54.364Z,98446.47
2023-12-08T18:11:24.800Z,98451.45
2023-12-08T18:13:53.412Z,98460.21
2023-12-08T18:16:31.425Z,98468.23
2023-12-08T18:18:59.094Z,98470.74
2023-12-08T18:21:27.745Z,98479.83
2023-12-08T18:23:55.469Z,98478.99
2023-12-08T18:26:23.163Z,98480.91
2023-12-08T18:31:30.421Z,98480.00
2023-12-08T18:33:58.782Z,98482.44
2023-12-08T18:36:27.200Z,98482.70
2023-12-08T18:38:57.514Z,98482.59
2023-12-08T18:41:24.941Z,98482.70
2023-12-08T18:43:51.781Z,98484.76
2023-12-08T18:46:19.004Z,98485.77
2023-12-08T18:48:47.242Z,98492.17
2023-12-08T18:51:15.275Z,98491.36
2023-12-08T18:53:43.557Z,98490.95
2023-12-08T18:56:10.972Z,98491.45
2023-12-08T18:58:38.690Z,98491.79
2023-12-08T19:01:06.716Z,98487.41
2023-12-08T19:03:33.627Z,98485.66
2023-12-08T19:06:01.045Z,98487.87
2023-12-08T19:08:28.725Z,98493.23
2023-12-08T19:10:55.718Z,98495.20
2023-12-08T19:13:22.760Z,98499.86
2023-12-08T19:15:56.388Z,98504.30
2023-12-08T19:18:24.262Z,98507.00
2023-12-08T19:20:51.075Z,98506.27
2023-12-08T19:23:18.597Z,98504.34
2023-12-08T19:25:45.405Z,98500.05
2023-12-08T19:28:12.916Z,98501.37
2023-12-08T19:30:40.594Z,98499.68
2023-12-08T19:33:08.939Z,98500.02
2023-12-08T19:35:36.450Z,98493.95
2023-12-08T19:38:04.671Z,98489.27
2023-12-08T19:40:31.397Z,98489.27
2023-12-08T19:42:58.983Z,98488.84
2023-12-08T19:45:27.049Z,98482.88
2023-12-08T19:47:56.558Z,98484.02
2023-12-08T19:50:24.460Z,98486.82
2023-12-08T19:52:51.508Z,98490.66
2023-12-08T19:55:19.270Z,98491.15
2023-12-08T19:57:46.304Z,98491.89
2023-12-08T20:00:14.695Z,98489.77
2023-12-08T20:02:42.643Z,98491.27
2023-12-08T20:05:10.045Z,98493.52
2023-12-08T20:07:37.614Z,98492.06
2023-12-08T20:10:04.789Z,98490.52
2023-12-08T20:12:31.827Z,98489.25
2023-12-08T20:14:58.886Z,98489.13
2023-12-08T20:17:26.347Z,98486.64
2023-12-08T20:19:53.599Z,98484.35
2023-12-08T20:22:22.575Z,98486.34
2023-12-08T20:24:50.625Z,98481.94
2023-12-08T20:27:18.268Z,98486.10
2023-12-08T20:29:45.790Z,98482.30
2023-12-08T20:32:12.684Z,98487.81
2023-12-08T20:34:39.798Z,98486.60
2023-12-08T20:37:06.969Z,98492.53
2023-12-08T20:39:33.767Z,98492.93
2023-12-08T20:42:00.624Z,98492.61
2023-12-08T20:44:28.200Z,98483.92
2023-12-08T20:46:56.365Z,98483.02
2023-12-08T20:49:24.202Z,98484.75
2023-12-08T20:51:51.860Z,98485.58
2023-12-08T20:54:19.051Z,98481.29
2023-12-08T20:56:45.970Z,98479.98
2023-12-08T20:59:13.058Z,98481.57
2023-12-08T21:01:40.938Z,98485.52
2023-12-08T21:04:07.928Z,98487.27
2023-12-08T21:06:35.089Z,98489.39
2023-12-08T21:09:02.636Z,98491.63
2023-12-08T21:11:32.195Z,98490.66
2023-12-08T21:14:02.148Z,98489.45
2023-12-08T21:16:28.709Z,98492.42
2023-12-08T21:18:55.719Z,98495.41
2023-12-08T21:21:23.255Z,98494.66
2023-12-08T21:23:50.197Z,98493.09
2023-12-08T21:26:17.143Z,98491.30
2023-12-08T21:28:44.167Z,98490.04
2023-12-08T21:31:11.136Z,98492.23
2023-12-08T21:33:38.429Z,98488.23
2023-12-08T21:36:06.223Z,98493.80
2023-12-08T21:38:33.209Z,98495.42
2023-12-08T21:41:01.075Z,98498.63
2023-12-08T21:43:28.180Z,98499.98
2023-12-08T21:45:54.980Z,98495.47
2023-12-08T21:48:21.882Z,98494.83
2023-12-08T21:50:49.353Z,98491.29
2023-12-08T21:53:16.655Z,98493.28
2023-12-08T21:55:43.501Z,98494.23
2023-12-08T21:58:10.426Z,98490.58
2023-12-08T22:00:37.619Z,98494.50
2023-12-08T22:03:06.223Z,98498.85
2023-12-08T22:05:33.699Z,98501.73
2023-12-08T22:08:00.721Z,98505.94
2023-12-08T22:10:27.766Z,98505.45
2023-12-08T22:12:57.064Z,98505.26
2023-12-08T22:15:23.920Z,98500.98
2023-12-08T22:17:50.918Z,98500.64
2023-12-08T22:20:18.124Z,98498.77
2023-12-08T22:22:44.962Z,98497.08
2023-12-08T22:25:11.789Z,98493.40
2023-12-08T22:27:38.830Z,98497.99
2023-12-08T22:30:07.172Z,98491.88
2023-12-08T22:32:34.267Z,98488.77
2023-12-08T22:35:02.527Z,98483.50
2023-12-08T22:37:29.772Z,98488.52
2023-12-08T22:39:56.883Z,98485.46
2023-12-08T22:51:25.611Z,98483.05
2023-12-08T23:09:58.881Z,98477.79
2023-12-08T23:12:26.079Z,98473.42
2023-12-08T23:15:34.463Z,98470.46
2023-12-08T23:18:14.402Z,98464.73
2023-12-08T23:20:42.014Z,98464.36
2023-12-08T23:23:09.067Z,98463.79
2023-12-08T23:25:36.038Z,98470.14
2023-12-08T23:28:03.168Z,98471.58
2023-12-08T23:30:30.105Z,98466.06
2023-12-08T23:32:57.561Z,98467.02
2023-12-08T23:35:26.905Z,98465.70
2023-12-08T23:37:53.814Z,98465.02
2023-12-08T23:40:21.059Z,98458.64
2023-12-08T23:42:47.829Z,98457.96
2023-12-08T23:45:55.779Z,98458.54
2023-12-08T23:49:32.070Z,98460.04
2023-12-08T23:52:46.237Z,98455.39
2023-12-08T23:55:13.028Z,98454.75
2023-12-08T23:57:41.885Z,98451.85
